PWSweather.com
Personal Weather Stations
Station Observations
KB2SBX
Sugarloaf, Sugarloaf, PA 18249

SugarloafSugarloaf, PA 18249

Lat: 41.0126685, Lon: -76.1082041

Elevation: 1030

Station Type: WS-2080

http://sugarloafpaweather.webng.com/weather.shtml

High Low Average
Temperature 36.3°F2.4°C 21.9°F-5.6°C 29.8°F-1.2°C
Dew Point 19.2°F-7.1°C 13.6°F-10.2°C 16.5°F-8.6°C
Winds 3.4 mph 5.5 kmh Calm Calm 1.0 mph SSE1.6 kmh SSE
Wind Gusts 13.0 mph20.9 kmh -- 3.0 mph4.8 kmh
Humidity 72% 44% 58%
Pressure 30.08 in1018.6 mb 29.90 in1012.5 mb -
Precipitation 0.11 in2.8 mm - -
Hour Temp Dew Point Humidity Winds Wind Gusts Pressure Precip Precip Rate Daily Precip Total
12:00 AM 26.4°F-3.1°C 15.2°F-9.3°C 62% Calm Calm 0.7 mph1.1 kmh 30.09 in1019.0 mb 0.00 in0.0 mm 0.00 in/hr0.0 mm/hr 0.11 in2.8 mm
12:15 AM 26.1°F-3.3°C 14.9°F-9.5°C 62% Calm Calm -- 30.09 in1019.0 mb 0.00 in0.0 mm 0.00 in/hr0.0 mm/hr 0.11 in2.8 mm
12:30 AM 25.3°F-3.7°C 14.5°F-9.7°C 63% Calm Calm -- 30.09 in1019.0 mb 0.00 in0.0 mm 0.00 in/hr0.0 mm/hr 0.11 in2.8 mm
12:45 AM 25.3°F-3.7°C 14.9°F-9.5°C 64% Calm Calm -- 30.09 in1019.0 mb 0.00 in0.0 mm 0.00 in/hr0.0 mm/hr 0.11 in2.8 mm
01:00 AM 25.7°F-3.5°C 15.2°F-9.3°C 64% Calm Calm -- 30.08 in1018.6 mb 0.00 in0.0 mm 0.00 in/hr0.0 mm/hr 0.11 in2.8 mm
01:15 AM 25.7°F-3.5°C 15.2°F-9.3°C 64% Calm Calm 0.7 mph1.1 kmh 30.08 in1018.6 mb 0.00 in0.0 mm 0.00 in/hr0.0 mm/hr 0.00 in0.0 mm
01:30 AM 25.9°F-3.4°C 15.4°F-9.2°C 64% 0.1 mph S0.2 kmh S 1.6 mph2.6 kmh 30.08 in1018.6 mb 0.00 in0.0 mm 0.00 in/hr0.0 mm/hr 0.00 in0.0 mm
01:45 AM 25.7°F-3.5°C 15.6°F-9.1°C 65% 0.6 mph NE1.0 kmh NE 2.2 mph3.5 kmh 30.08 in1018.6 mb 0.00 in0.0 mm 0.00 in/hr0.0 mm/hr 0.00 in0.0 mm
02:00 AM 25.9°F-3.4°C 16.1°F-8.8°C 66% Calm Calm 0.7 mph1.1 kmh 30.08 in1018.6 mb 0.00 in0.0 mm 0.00 in/hr0.0 mm/hr 0.00 in0.0 mm
02:15 AM 26.1°F-3.3°C 15.9°F-8.9°C 65% Calm Calm -- 30.08 in1018.6 mb 0.00 in0.0 mm 0.00 in/hr0.0 mm/hr 0.00 in0.0 mm
02:30 AM 25.9°F-3.4°C 15.8°F-9.0°C 65% Calm Calm -- 30.08 in1018.6 mb 0.00 in0.0 mm 0.00 in/hr0.0 mm/hr 0.00 in0.0 mm
02:45 AM 25.9°F-3.4°C 15.8°F-9.0°C 65% Calm Calm -- 30.08 in1018.6 mb 0.00 in0.0 mm 0.00 in/hr0.0 mm/hr 0.00 in0.0 mm
03:00 AM 25.7°F-3.5°C 16.0°F-8.9°C 66% Calm Calm -- 30.08 in1018.6 mb 0.00 in0.0 mm 0.00 in/hr0.0 mm/hr 0.00 in0.0 mm
03:15 AM 25.5°F-3.6°C 15.8°F-9.0°C 66% Calm Calm -- 30.07 in1018.3 mb 0.00 in0.0 mm 0.00 in/hr0.0 mm/hr 0.00 in0.0 mm
03:30 AM 25.3°F-3.7°C 16.6°F-8.6°C 69% 0.1 mph ESE0.2 kmh ESE 1.6 mph2.6 kmh 30.07 in1018.3 mb 0.00 in0.0 mm 0.00 in/hr0.0 mm/hr 0.00 in0.0 mm
03:45 AM 25.2°F-3.8°C 16.1°F-8.8°C 68% 0.1 mph NE0.2 kmh NE 1.6 mph2.6 kmh 30.06 in1017.9 mb 0.00 in0.0 mm 0.00 in/hr0.0 mm/hr 0.00 in0.0 mm
04:00 AM 24.8°F-4.0°C 15.8°F-9.0°C 68% Calm Calm -- 30.06 in1017.9 mb 0.00 in0.0 mm 0.00 in/hr0.0 mm/hr 0.00 in0.0 mm
04:15 AM 24.4°F-4.2°C 15.8°F-9.0°C 69% Calm Calm 0.7 mph1.1 kmh 30.06 in1017.9 mb 0.00 in0.0 mm 0.00 in/hr0.0 mm/hr 0.00 in0.0 mm
04:30 AM 24.4°F-4.2°C 16.1°F-8.8°C 70% Calm Calm -- 30.06 in1017.9 mb 0.00 in0.0 mm 0.00 in/hr0.0 mm/hr 0.00 in0.0 mm
04:45 AM 24.6°F-4.1°C 16.3°F-8.7°C 70% Calm Calm -- 30.06 in1017.9 mb 0.00 in0.0 mm 0.00 in/hr0.0 mm/hr 0.00 in0.0 mm
05:00 AM 24.6°F-4.1°C 15.9°F-8.9°C 69% 0.8 mph SW1.3 kmh SW 4.5 mph7.2 kmh 30.06 in1017.9 mb 0.00 in0.0 mm 0.00 in/hr0.0 mm/hr 0.00 in0.0 mm
05:15 AM 25.9°F-3.4°C 16.5°F-8.6°C 67% 0.9 mph NW1.4 kmh NW 4.5 mph7.2 kmh 30.06 in1017.9 mb 0.00 in0.0 mm 0.00 in/hr0.0 mm/hr 0.00 in0.0 mm
05:30 AM 26.1°F-3.3°C 15.9°F-8.9°C 65% 0.4 mph SW0.6 kmh SW 3.1 mph5.0 kmh 30.06 in1017.9 mb 0.00 in0.0 mm 0.00 in/hr0.0 mm/hr 0.00 in0.0 mm
05:45 AM 26.1°F-3.3°C 15.9°F-8.9°C 65% 1.0 mph WNW1.6 kmh WNW 5.4 mph8.7 kmh 30.06 in1017.9 mb 0.00 in0.0 mm 0.00 in/hr0.0 mm/hr 0.00 in0.0 mm
06:00 AM 26.1°F-3.3°C 15.6°F-9.1°C 64% 0.9 mph NW1.4 kmh NW 4.5 mph7.2 kmh 30.06 in1017.9 mb 0.00 in0.0 mm 0.00 in/hr0.0 mm/hr 0.00 in0.0 mm
06:15 AM 26.1°F-3.3°C 15.6°F-9.1°C 64% 1.2 mph SE1.9 kmh SE 3.8 mph6.1 kmh 30.06 in1017.9 mb 0.00 in0.0 mm 0.00 in/hr0.0 mm/hr 0.00 in0.0 mm
06:30 AM 25.3°F-3.7°C 14.9°F-9.5°C 64% 0.2 mph WSW0.3 kmh WSW 3.1 mph5.0 kmh 30.06 in1017.9 mb 0.00 in0.0 mm 0.00 in/hr0.0 mm/hr 0.00 in0.0 mm
06:45 AM 24.8°F-4.0°C 14.7°F-9.6°C 65% 0.2 mph SSE0.3 kmh SSE 2.2 mph3.5 kmh 30.06 in1017.9 mb 0.00 in0.0 mm 0.00 in/hr0.0 mm/hr 0.00 in0.0 mm
07:00 AM 23.9°F-4.5°C 14.2°F-9.9°C 66% Calm Calm 0.7 mph1.1 kmh 30.06 in1017.9 mb 0.00 in0.0 mm 0.00 in/hr0.0 mm/hr 0.00 in0.0 mm
07:15 AM 23.2°F-4.9°C 13.6°F-10.2°C 66% Calm Calm -- 30.06 in1017.9 mb 0.00 in0.0 mm 0.00 in/hr0.0 mm/hr 0.00 in0.0 mm
07:30 AM 22.6°F-5.2°C 14.0°F-10.0°C 69% Calm Calm -- 30.06 in1017.9 mb 0.00 in0.0 mm 0.00 in/hr0.0 mm/hr 0.00 in0.0 mm
07:45 AM 22.5°F-5.3°C 14.2°F-9.9°C 70% Calm Calm -- 30.06 in1017.9 mb 0.00 in0.0 mm 0.00 in/hr0.0 mm/hr 0.00 in0.0 mm
08:00 AM 22.1°F-5.5°C 14.2°F-9.9°C 71% Calm Calm -- 30.06 in1017.9 mb 0.00 in0.0 mm 0.00 in/hr0.0 mm/hr 0.00 in0.0 mm
08:15 AM 21.9°F-5.6°C 14.0°F-10.0°C 71% Calm Calm -- 30.05 in1017.6 mb 0.00 in0.0 mm 0.00 in/hr0.0 mm/hr 0.00 in0.0 mm
08:30 AM 21.9°F-5.6°C 14.3°F-9.8°C 72% Calm Calm -- 30.06 in1017.9 mb 0.00 in0.0 mm 0.00 in/hr0.0 mm/hr 0.00 in0.0 mm
08:45 AM 22.5°F-5.3°C 14.8°F-9.6°C 72% Calm Calm -- 30.06 in1017.9 mb 0.00 in0.0 mm 0.00 in/hr0.0 mm/hr 0.00 in0.0 mm
09:00 AM 23.0°F-5.0°C 15.0°F-9.4°C 71% Calm Calm -- 30.06 in1017.9 mb 0.00 in0.0 mm 0.00 in/hr0.0 mm/hr 0.00 in0.0 mm
09:15 AM 23.7°F-4.6°C 16.1°F-8.8°C 72% 0.1 mph SSE0.2 kmh SSE 1.6 mph2.6 kmh 30.06 in1017.9 mb 0.00 in0.0 mm 0.00 in/hr0.0 mm/hr 0.00 in0.0 mm
09:30 AM 25.2°F-3.8°C 17.1°F-8.3°C 71% 0.1 mph SSE0.2 kmh SSE 1.6 mph2.6 kmh 30.05 in1017.6 mb 0.00 in0.0 mm 0.00 in/hr0.0 mm/hr 0.00 in0.0 mm
09:45 AM 27.1°F-2.7°C 18.0°F-7.8°C 68% 0.5 mph S0.8 kmh S 3.8 mph6.1 kmh 30.05 in1017.6 mb 0.00 in0.0 mm 0.00 in/hr0.0 mm/hr 0.00 in0.0 mm
10:00 AM 28.6°F-1.9°C 18.7°F-7.4°C 66% 1.2 mph S1.9 kmh S 4.5 mph7.2 kmh 30.05 in1017.6 mb 0.00 in0.0 mm 0.00 in/hr0.0 mm/hr 0.00 in0.0 mm
10:15 AM 30.0°F-1.1°C 18.6°F-7.4°C 62% 1.2 mph S1.9 kmh S 5.4 mph8.7 kmh 30.05 in1017.6 mb 0.00 in0.0 mm 0.00 in/hr0.0 mm/hr 0.00 in0.0 mm
10:30 AM 31.5°F-0.3°C 19.2°F-7.1°C 60% 1.8 mph SSW2.9 kmh SSW 4.5 mph7.2 kmh 30.04 in1017.3 mb 0.00 in0.0 mm 0.00 in/hr0.0 mm/hr 0.00 in0.0 mm
10:45 AM 32.2°F0.1°C 17.9°F-7.8°C 55% 2.8 mph NNW4.5 kmh NNW 6.0 mph9.7 kmh 30.04 in1017.3 mb 0.00 in0.0 mm 0.00 in/hr0.0 mm/hr 0.00 in0.0 mm
11:00 AM 32.5°F0.3°C 16.9°F-8.4°C 52% 3.1 mph WNW5.0 kmh WNW 8.3 mph13.4 kmh 30.04 in1017.3 mb 0.00 in0.0 mm 0.00 in/hr0.0 mm/hr 0.00 in0.0 mm
11:15 AM 33.1°F0.6°C 17.4°F-8.1°C 52% 2.6 mph NW4.2 kmh NW 6.9 mph11.1 kmh 30.03 in1016.9 mb 0.00 in0.0 mm 0.00 in/hr0.0 mm/hr 0.00 in0.0 mm
11:30 AM 32.7°F0.4°C 16.2°F-8.8°C 50% 3.4 mph SW5.5 kmh SW 13.0 mph20.9 kmh 30.03 in1016.9 mb 0.00 in0.0 mm 0.00 in/hr0.0 mm/hr 0.00 in0.0 mm
11:45 AM 32.7°F0.4°C 16.6°F-8.6°C 51% 3.2 mph NW5.1 kmh NW 9.2 mph14.8 kmh 30.02 in1016.6 mb 0.00 in0.0 mm 0.00 in/hr0.0 mm/hr 0.00 in0.0 mm
12:00 PM 34.0°F1.1°C 17.3°F-8.2°C 50% 2.1 mph WSW3.4 kmh WSW 6.0 mph9.7 kmh 30.02 in1016.6 mb 0.00 in0.0 mm 0.00 in/hr0.0 mm/hr 0.00 in0.0 mm
12:15 PM 34.7°F1.5°C 17.5°F-8.1°C 49% 2.1 mph W3.4 kmh W 6.9 mph11.1 kmh 30.02 in1016.6 mb 0.00 in0.0 mm 0.00 in/hr0.0 mm/hr 0.00 in0.0 mm
12:30 PM 34.9°F1.6°C 16.7°F-8.5°C 47% 2.5 mph WSW4.0 kmh WSW 7.6 mph12.2 kmh 30.01 in1016.3 mb 0.00 in0.0 mm 0.00 in/hr0.0 mm/hr 0.00 in0.0 mm
12:45 PM 34.7°F1.5°C 17.0°F-8.3°C 48% 2.3 mph W3.7 kmh W 5.4 mph8.7 kmh 30.01 in1016.3 mb 0.00 in0.0 mm 0.00 in/hr0.0 mm/hr 0.00 in0.0 mm
01:00 PM 35.1°F1.7°C 17.9°F-7.8°C 49% 2.1 mph S3.4 kmh S 5.4 mph8.7 kmh 30.00 in1015.9 mb 0.00 in0.0 mm 0.00 in/hr0.0 mm/hr 0.00 in0.0 mm
01:15 PM 35.8°F2.1°C 18.0°F-7.8°C 48% 2.6 mph SSE4.2 kmh SSE 7.6 mph12.2 kmh 29.99 in1015.6 mb 0.00 in0.0 mm 0.00 in/hr0.0 mm/hr 0.00 in0.0 mm
01:30 PM 35.8°F2.1°C 17.1°F-8.3°C 46% 3.0 mph S4.8 kmh S 8.3 mph13.4 kmh 29.97 in1014.9 mb 0.00 in0.0 mm 0.00 in/hr0.0 mm/hr 0.00 in0.0 mm
01:45 PM 35.8°F2.1°C 17.6°F-8.0°C 47% 2.1 mph W3.4 kmh W 6.9 mph11.1 kmh 29.97 in1014.9 mb 0.00 in0.0 mm 0.00 in/hr0.0 mm/hr 0.00 in0.0 mm
02:00 PM 36.1°F2.3°C 17.9°F-7.8°C 47% 1.8 mph WSW2.9 kmh WSW 5.4 mph8.7 kmh 29.96 in1014.6 mb 0.00 in0.0 mm 0.00 in/hr0.0 mm/hr 0.00 in0.0 mm
02:15 PM 36.3°F2.4°C 17.0°F-8.3°C 45% 1.7 mph N2.7 kmh N 5.4 mph8.7 kmh 29.96 in1014.6 mb 0.00 in0.0 mm 0.00 in/hr0.0 mm/hr 0.00 in0.0 mm
02:30 PM 35.6°F2.0°C 16.9°F-8.4°C 46% 1.8 mph SSE2.9 kmh SSE 6.0 mph9.7 kmh 29.94 in1013.9 mb 0.00 in0.0 mm 0.00 in/hr0.0 mm/hr 0.00 in0.0 mm
02:45 PM 36.0°F2.2°C 17.7°F-7.9°C 47% 1.6 mph SW2.6 kmh SW 4.5 mph7.2 kmh 29.93 in1013.5 mb 0.00 in0.0 mm 0.00 in/hr0.0 mm/hr 0.00 in0.0 mm
03:00 PM 35.8°F2.1°C 16.5°F-8.6°C 45% 2.0 mph WSW3.2 kmh WSW 5.4 mph8.7 kmh 29.93 in1013.5 mb 0.00 in0.0 mm 0.00 in/hr0.0 mm/hr 0.00 in0.0 mm
03:15 PM 36.0°F2.2°C 17.2°F-8.2°C 46% 1.4 mph WNW2.3 kmh WNW 4.5 mph7.2 kmh 29.92 in1013.2 mb 0.00 in0.0 mm 0.00 in/hr0.0 mm/hr 0.00 in0.0 mm
03:30 PM 36.0°F2.2°C 16.2°F-8.8°C 44% 1.4 mph W2.3 kmh W 6.0 mph9.7 kmh 29.91 in1012.9 mb 0.00 in0.0 mm 0.00 in/hr0.0 mm/hr 0.00 in0.0 mm
03:45 PM 36.3°F2.4°C 16.5°F-8.6°C 44% 1.6 mph WSW2.6 kmh WSW 6.0 mph9.7 kmh 29.92 in1013.2 mb 0.00 in0.0 mm 0.00 in/hr0.0 mm/hr 0.00 in0.0 mm
04:00 PM 36.1°F2.3°C 16.4°F-8.7°C 44% 2.4 mph W3.9 kmh W 6.9 mph11.1 kmh 29.93 in1013.5 mb 0.00 in0.0 mm 0.00 in/hr0.0 mm/hr 0.00 in0.0 mm
04:15 PM 36.3°F2.4°C 17.0°F-8.3°C 45% 1.6 mph W2.6 kmh W 6.9 mph11.1 kmh 29.92 in1013.2 mb 0.00 in0.0 mm 0.00 in/hr0.0 mm/hr 0.00 in0.0 mm
04:30 PM 36.3°F2.4°C 18.0°F-7.8°C 47% 1.6 mph WSW2.6 kmh WSW 4.5 mph7.2 kmh 29.93 in1013.5 mb 0.00 in0.0 mm 0.00 in/hr0.0 mm/hr 0.00 in0.0 mm
04:45 PM 36.0°F2.2°C 17.7°F-7.9°C 47% 2.2 mph SW3.5 kmh SW 6.9 mph11.1 kmh 29.92 in1013.2 mb 0.00 in0.0 mm 0.00 in/hr0.0 mm/hr 0.00 in0.0 mm
05:00 PM 35.8°F2.1°C 17.6°F-8.0°C 47% 1.6 mph WSW2.6 kmh WSW 5.4 mph8.7 kmh 29.93 in1013.5 mb 0.00 in0.0 mm 0.00 in/hr0.0 mm/hr 0.00 in0.0 mm
05:15 PM 35.4°F1.9°C 17.7°F-7.9°C 48% 1.2 mph SW1.9 kmh SW 6.0 mph9.7 kmh 29.92 in1013.2 mb 0.00 in0.0 mm 0.00 in/hr0.0 mm/hr 0.00 in0.0 mm
05:30 PM 35.2°F1.8°C 18.0°F-7.8°C 49% 0.6 mph WNW1.0 kmh WNW 4.5 mph7.2 kmh 29.92 in1013.2 mb 0.00 in0.0 mm 0.00 in/hr0.0 mm/hr 0.00 in0.0 mm
05:45 PM 35.1°F1.7°C 17.9°F-7.8°C 49% 0.4 mph SSW0.6 kmh SSW 4.5 mph7.2 kmh 29.92 in1013.2 mb 0.00 in0.0 mm 0.00 in/hr0.0 mm/hr 0.00 in0.0 mm
06:00 PM 34.7°F1.5°C 18.0°F-7.8°C 50% 0.4 mph NW0.6 kmh NW 3.1 mph5.0 kmh 29.92 in1013.2 mb 0.00 in0.0 mm 0.00 in/hr0.0 mm/hr 0.00 in0.0 mm
06:15 PM 34.3°F1.3°C 18.1°F-7.7°C 51% 0.6 mph SW1.0 kmh SW 3.1 mph5.0 kmh 29.92 in1013.2 mb 0.00 in0.0 mm 0.00 in/hr0.0 mm/hr 0.00 in0.0 mm
06:30 PM 34.0°F1.1°C 17.8°F-7.9°C 51% 0.3 mph SSW0.5 kmh SSW 3.1 mph5.0 kmh 29.92 in1013.2 mb 0.00 in0.0 mm 0.00 in/hr0.0 mm/hr 0.00 in0.0 mm
06:45 PM 33.6°F0.9°C 18.3°F-7.6°C 53% 0.3 mph S0.5 kmh S 2.2 mph3.5 kmh 29.91 in1012.9 mb 0.00 in0.0 mm 0.00 in/hr0.0 mm/hr 0.00 in0.0 mm
07:00 PM 33.4°F0.8°C 17.7°F-7.9°C 52% Calm Calm 1.6 mph2.6 kmh 29.91 in1012.9 mb 0.00 in0.0 mm 0.00 in/hr0.0 mm/hr 0.00 in0.0 mm
07:15 PM 33.3°F0.7°C 18.0°F-7.8°C 53% Calm Calm -- 29.91 in1012.9 mb 0.00 in0.0 mm 0.00 in/hr0.0 mm/hr 0.00 in0.0 mm
07:30 PM 32.9°F0.5°C 17.7°F-7.9°C 53% Calm Calm -- 29.90 in1012.5 mb 0.00 in0.0 mm 0.00 in/hr0.0 mm/hr 0.00 in0.0 mm
07:45 PM 32.7°F0.4°C 17.9°F-7.8°C 54% 0.1 mph SSW0.2 kmh SSW 1.6 mph2.6 kmh 29.89 in1012.2 mb 0.00 in0.0 mm 0.00 in/hr0.0 mm/hr 0.00 in0.0 mm
08:15 PM 32.5°F0.3°C 18.6°F-7.4°C 56% Calm Calm -- 29.88 in1011.9 mb 0.00 in0.0 mm 0.00 in/hr0.0 mm/hr 0.00 in0.0 mm
08:30 PM 32.4°F0.2°C 18.9°F-7.3°C 57% Calm Calm -- 29.89 in1012.2 mb 0.00 in0.0 mm 0.00 in/hr0.0 mm/hr 0.00 in0.0 mm
08:45 PM 32.2°F0.1°C 18.7°F-7.4°C 57% Calm Calm 0.7 mph1.1 kmh 29.89 in1012.2 mb 0.00 in0.0 mm 0.00 in/hr0.0 mm/hr 0.00 in0.0 mm
09:00 PM 32.0°F0.0°C 19.3°F-7.1°C 59% Calm Calm 0.7 mph1.1 kmh 29.88 in1011.9 mb 0.00 in0.0 mm 0.00 in/hr0.0 mm/hr 0.00 in0.0 mm
09:15 PM 32.0°F0.0°C 19.7°F-6.8°C 60% Calm Calm -- 29.88 in1011.9 mb 0.00 in0.0 mm 0.00 in/hr0.0 mm/hr 0.00 in0.0 mm
09:30 PM 31.8°F-0.1°C 19.5°F-6.9°C 60% Calm Calm -- 29.88 in1011.9 mb 0.00 in0.0 mm 0.00 in/hr0.0 mm/hr 0.00 in0.0 mm
09:45 PM 32.0°F0.0°C 19.7°F-6.8°C 60% Calm Calm -- 29.88 in1011.9 mb 0.00 in0.0 mm 0.00 in/hr0.0 mm/hr 0.00 in0.0 mm
10:00 PM 31.8°F-0.1°C 19.9°F-6.7°C 61% Calm Calm -- 29.87 in1011.5 mb 0.00 in0.0 mm 0.00 in/hr0.0 mm/hr 0.00 in0.0 mm
10:15 PM 31.8°F-0.1°C 19.9°F-6.7°C 61% Calm Calm -- 29.87 in1011.5 mb 0.00 in0.0 mm 0.00 in/hr0.0 mm/hr 0.00 in0.0 mm
10:30 PM 31.6°F-0.2°C 19.8°F-6.8°C 61% Calm Calm -- 29.88 in1011.9 mb 0.00 in0.0 mm 0.00 in/hr0.0 mm/hr 0.00 in0.0 mm
10:45 PM 31.6°F-0.2°C 19.8°F-6.8°C 61% 0.2 mph NNW0.3 kmh NNW 3.1 mph5.0 kmh 29.87 in1011.5 mb 0.00 in0.0 mm 0.00 in/hr0.0 mm/hr 0.00 in0.0 mm
11:00 PM 32.2°F0.1°C 21.0°F-6.1°C 63% 1.3 mph SW2.1 kmh SW 6.9 mph11.1 kmh 29.87 in1011.5 mb 0.00 in0.0 mm 0.00 in/hr0.0 mm/hr 0.00 in0.0 mm
11:15 PM 32.0°F0.0°C 20.9°F-6.2°C 63% 0.2 mph SSE0.3 kmh SSE 2.2 mph3.5 kmh 29.87 in1011.5 mb 0.00 in0.0 mm 0.00 in/hr0.0 mm/hr 0.00 in0.0 mm
11:30 PM 31.8°F-0.1°C 22.1°F-5.5°C 67% 0.4 mph WSW0.6 kmh WSW 3.1 mph5.0 kmh 29.86 in1011.2 mb 0.00 in0.0 mm 0.00 in/hr0.0 mm/hr 0.00 in0.0 mm
11:45 PM 31.3°F-0.4°C 22.7°F-5.2°C 70% Calm Calm 0.7 mph1.1 kmh 29.86 in1011.2 mb 0.00 in0.0 mm 0.00 in/hr0.0 mm/hr 0.00 in0.0 mm